Weather

Fire Weather Watch

Issued:
3:39 AM MDT on May 23, 2017
Expires:
9:00 PM MDT on May 25, 2017
Clear
Tuesday 05/23 0%
Clear
Mainly sunny. High 77F. Winds S at 5 to 10 mph, becoming NNW and increasing to 15 to 25 mph.
Clear
Wednesday 05/24 0%
Clear
Mainly sunny. High 89F. Winds W at 10 to 20 mph.
Partly Cloudy
Thursday 05/25 0%
Partly Cloudy
Sunshine and a few clouds with gusty winds developing during the afternoon. High 88F. Winds WSW at 20 to 30 mph. Winds could occasionally gust over 40 mph.
Clear
Friday 05/26 0%
Clear
Sunny, along with a few afternoon clouds. High 86F. Winds WSW at 15 to 25 mph. Winds could occasionally gust over 40 mph.
Clear
Saturday 05/27 0%
Clear
A mainly sunny sky. High 82F. Winds W at 10 to 20 mph.

 

 

For a detailed forecast click the banner below.

ballooncastlogo

 

 

Available data for KABQ from the past 2 hours
ALBUQUERQUE, NM
Metar
KABQ 231352Z 03006KT 10SM FEW040 14/06 A3016 RMK AO2 SLP145 MTN TOPS OBSC SE T01440061

13:52 UTC

Wind: 30° 6kt

Visibility: 10 SM

Sky: FEW 4000 ft

Temp: 14 deg C / 57.2 deg F

Dewpoint: 6 deg C / 42.8 deg F

Pressure: 30.16 inHg

TAF
KABQ 231134Z 2312/2412 09015KT P6SM FEW050 FM231500 06008KT P6SM FEW070 FM231800 33015G23KT P6SM SKC FM240200 33011KT P6SM SKC
Pireps (3)
ABQ UA /OV ABQ350020/TM 1305/FL400/TP B737/TB MOD CHOP/MOD TURB/RM ZAB
ABQ UA /OV ABQ340020/TM 1303/FL370/TP B738/TB MOD MTN WAVE +/-15KTS/RM ZAB
ABQ UA /OV ABQ /TM 1300 /FL360 /TP B738 /TB CONT MOD CHOP/RM AWC-WEB